sensor_id;sensor_type;location;lat;lon;timestamp;temperature;humidity
45383;DHT22;42455;51.660;5.824;2023-01-06T00:00:13;12.9;98.5
45383;DHT22;42455;51.660;5.824;2023-01-06T00:05:19;12.9;98.5
45383;DHT22;42455;51.660;5.824;2023-01-06T00:10:25;12.9;98.5
45383;DHT22;42455;51.660;5.824;2023-01-06T00:15:31;12.9;98.5
45383;DHT22;42455;51.660;5.824;2023-01-06T00:20:36;12.9;98.5
45383;DHT22;42455;51.660;5.824;2023-01-06T00:25:47;13.0;98.5
45383;DHT22;42455;51.660;5.824;2023-01-06T00:30:49;13.0;98.5
45383;DHT22;42455;51.660;5.824;2023-01-06T00:35:57;13.0;98.5
45383;DHT22;42455;51.660;5.824;2023-01-06T00:41:02;13.0;98.5
45383;DHT22;42455;51.660;5.824;2023-01-06T00:46:06;13.0;98.5
45383;DHT22;42455;51.660;5.824;2023-01-06T00:51:13;13.1;98.5
45383;DHT22;42455;51.660;5.824;2023-01-06T00:56:19;13.1;98.5
45383;DHT22;42455;51.660;5.824;2023-01-06T01:01:25;13.1;98.5
45383;DHT22;42455;51.660;5.824;2023-01-06T01:06:31;13.1;98.5
45383;DHT22;42455;51.660;5.824;2023-01-06T01:11:37;13.1;98.5
45383;DHT22;42455;51.660;5.824;2023-01-06T01:16:44;13.1;98.5
45383;DHT22;42455;51.660;5.824;2023-01-06T01:21:50;13.2;98.5
45383;DHT22;42455;51.660;5.824;2023-01-06T01:26:56;13.1;98.5
45383;DHT22;42455;51.660;5.824;2023-01-06T01:32:03;13.2;98.5
45383;DHT22;42455;51.660;5.824;2023-01-06T01:37:08;13.2;98.5
45383;DHT22;42455;51.660;5.824;2023-01-06T01:42:20;13.2;98.5
45383;DHT22;42455;51.660;5.824;2023-01-06T01:47:23;13.2;98.5
45383;DHT22;42455;51.660;5.824;2023-01-06T01:52:27;13.2;98.0
45383;DHT22;42455;51.660;5.824;2023-01-06T01:57:38;13.2;98.0
45383;DHT22;42455;51.660;5.824;2023-01-06T02:02:41;13.2;98.0
45383;DHT22;42455;51.660;5.824;2023-01-06T02:07:47;13.2;98.0
45383;DHT22;42455;51.660;5.824;2023-01-06T02:12:57;13.2;98.0
45383;DHT22;42455;51.660;5.824;2023-01-06T02:18:39;13.2;98.0
45383;DHT22;42455;51.660;5.824;2023-01-06T02:26:19;13.2;97.5
45383;DHT22;42455;51.660;5.824;2023-01-06T02:33:04;13.2;97.5
45383;DHT22;42455;51.660;5.824;2023-01-06T02:38:37;13.2;97.5
45383;DHT22;42455;51.660;5.824;2023-01-06T02:44:18;13.2;97.5
45383;DHT22;42455;51.660;5.824;2023-01-06T02:49:42;13.2;97.5
45383;DHT22;42455;51.660;5.824;2023-01-06T02:54:11;13.2;97.5
45383;DHT22;42455;51.660;5.824;2023-01-06T02:56:10;13.2;97.0
45383;DHT22;42455;51.660;5.824;2023-01-06T02:58:52;13.2;97.0
45383;DHT22;42455;51.660;5.824;2023-01-06T03:03:52;13.2;97.0
45383;DHT22;42455;51.660;5.824;2023-01-06T03:08:59;13.2;97.0
45383;DHT22;42455;51.660;5.824;2023-01-06T03:14:26;13.2;97.0
45383;DHT22;42455;51.660;5.824;2023-01-06T03:19:11;13.2;96.5
45383;DHT22;42455;51.660;5.824;2023-01-06T03:24:17;13.2;96.5
45383;DHT22;42455;51.660;5.824;2023-01-06T03:29:23;13.2;96.5
45383;DHT22;42455;51.660;5.824;2023-01-06T03:34:51;13.2;96.5
45383;DHT22;42455;51.660;5.824;2023-01-06T03:39:48;13.1;96.5
45383;DHT22;42455;51.660;5.824;2023-01-06T03:44:56;13.2;96.0
45383;DHT22;42455;51.660;5.824;2023-01-06T03:49:59;13.1;96.0
45383;DHT22;42455;51.660;5.824;2023-01-06T03:55:04;13.1;96.0
45383;DHT22;42455;51.660;5.824;2023-01-06T04:00:04;13.1;96.0
45383;DHT22;42455;51.660;5.824;2023-01-06T04:05:14;13.2;96.0
45383;DHT22;42455;51.660;5.824;2023-01-06T04:10:16;13.2;96.0
45383;DHT22;42455;51.660;5.824;2023-01-06T04:15:22;13.2;96.0
45383;DHT22;42455;51.660;5.824;2023-01-06T04:20:26;13.2;95.5
45383;DHT22;42455;51.660;5.824;2023-01-06T04:25:30;13.2;95.5
45383;DHT22;42455;51.660;5.824;2023-01-06T04:30:36;13.2;95.5
45383;DHT22;42455;51.660;5.824;2023-01-06T04:35:42;13.2;95.5
45383;DHT22;42455;51.660;5.824;2023-01-06T04:40:48;13.2;95.5
45383;DHT22;42455;51.660;5.824;2023-01-06T04:45:56;13.2;95.5
45383;DHT22;42455;51.660;5.824;2023-01-06T04:51:01;13.2;95.5
45383;DHT22;42455;51.660;5.824;2023-01-06T04:56:08;13.2;95.5
45383;DHT22;42455;51.660;5.824;2023-01-06T05:01:13;13.2;95.5
45383;DHT22;42455;51.660;5.824;2023-01-06T05:06:19;13.2;95.5
45383;DHT22;42455;51.660;5.824;2023-01-06T05:11:26;13.2;95.5
45383;DHT22;42455;51.660;5.824;2023-01-06T05:16:33;13.2;95.5
45383;DHT22;42455;51.660;5.824;2023-01-06T05:21:38;13.2;95.5
45383;DHT22;42455;51.660;5.824;2023-01-06T05:26:44;13.2;95.5
45383;DHT22;42455;51.660;5.824;2023-01-06T05:31:50;13.2;95.5
45383;DHT22;42455;51.660;5.824;2023-01-06T05:36:56;13.2;95.5
45383;DHT22;42455;51.660;5.824;2023-01-06T05:42:03;13.2;95.5
45383;DHT22;42455;51.660;5.824;2023-01-06T05:47:09;13.2;95.5
45383;DHT22;42455;51.660;5.824;2023-01-06T05:52:15;13.2;95.5
45383;DHT22;42455;51.660;5.824;2023-01-06T05:57:21;13.2;95.5
45383;DHT22;42455;51.660;5.824;2023-01-06T06:02:28;13.3;95.5
45383;DHT22;42455;51.660;5.824;2023-01-06T06:07:34;13.3;95.5
45383;DHT22;42455;51.660;5.824;2023-01-06T06:12:40;13.3;95.5
45383;DHT22;42455;51.660;5.824;2023-01-06T06:17:45;13.3;95.5
45383;DHT22;42455;51.660;5.824;2023-01-06T06:22:51;13.3;95.5
45383;DHT22;42455;51.660;5.824;2023-01-06T06:27:57;13.3;95.5
45383;DHT22;42455;51.660;5.824;2023-01-06T06:33:03;13.3;95.5
45383;DHT22;42455;51.660;5.824;2023-01-06T06:38:09;13.3;95.5
45383;DHT22;42455;51.660;5.824;2023-01-06T06:43:15;13.2;95.5
45383;DHT22;42455;51.660;5.824;2023-01-06T06:48:21;13.2;95.5
45383;DHT22;42455;51.660;5.824;2023-01-06T06:53:28;13.2;95.5
45383;DHT22;42455;51.660;5.824;2023-01-06T06:58:33;13.2;95.5
45383;DHT22;42455;51.660;5.824;2023-01-06T07:03:39;13.2;95.5
45383;DHT22;42455;51.660;5.824;2023-01-06T07:08:46;13.2;95.5
45383;DHT22;42455;51.660;5.824;2023-01-06T07:13:51;13.2;95.5
45383;DHT22;42455;51.660;5.824;2023-01-06T07:18:58;13.2;95.5
45383;DHT22;42455;51.660;5.824;2023-01-06T07:24:04;13.2;95.5
45383;DHT22;42455;51.660;5.824;2023-01-06T07:29:10;13.2;95.5
45383;DHT22;42455;51.660;5.824;2023-01-06T07:34:16;13.2;95.5
45383;DHT22;42455;51.660;5.824;2023-01-06T07:39:22;13.2;95.5
45383;DHT22;42455;51.660;5.824;2023-01-06T07:44:29;13.2;96.0
45383;DHT22;42455;51.660;5.824;2023-01-06T07:49:35;13.1;96.0
45383;DHT22;42455;51.660;5.824;2023-01-06T07:54:41;13.1;96.0
45383;DHT22;42455;51.660;5.824;2023-01-06T07:59:47;13.1;96.0
45383;DHT22;42455;51.660;5.824;2023-01-06T08:04:53;13.0;96.5
45383;DHT22;42455;51.660;5.824;2023-01-06T08:10:00;13.0;96.5
45383;DHT22;42455;51.660;5.824;2023-01-06T08:15:05;13.0;96.5
45383;DHT22;42455;51.660;5.824;2023-01-06T08:20:11;13.0;97.0
45383;DHT22;42455;51.660;5.824;2023-01-06T08:25:17;13.0;97.0
45383;DHT22;42455;51.660;5.824;2023-01-06T08:30:23;13.0;97.0
45383;DHT22;42455;51.660;5.824;2023-01-06T08:35:29;13.0;97.0
45383;DHT22;42455;51.660;5.824;2023-01-06T08:40:35;13.0;97.5
45383;DHT22;42455;51.660;5.824;2023-01-06T08:45:41;13.0;97.5
45383;DHT22;42455;51.660;5.824;2023-01-06T08:50:47;13.0;97.5
45383;DHT22;42455;51.660;5.824;2023-01-06T08:55:54;13.0;97.5
45383;DHT22;42455;51.660;5.824;2023-01-06T09:01:00;13.0;98.0
45383;DHT22;42455;51.660;5.824;2023-01-06T09:06:06;13.1;98.0
45383;DHT22;42455;51.660;5.824;2023-01-06T09:11:13;13.1;98.0
45383;DHT22;42455;51.660;5.824;2023-01-06T09:16:19;13.1;97.5
45383;DHT22;42455;51.660;5.824;2023-01-06T09:21:25;13.1;97.5
45383;DHT22;42455;51.660;5.824;2023-01-06T09:26:31;13.2;98.0
45383;DHT22;42455;51.660;5.824;2023-01-06T09:31:37;13.2;98.0
45383;DHT22;42455;51.660;5.824;2023-01-06T09:36:43;13.3;98.0
45383;DHT22;42455;51.660;5.824;2023-01-06T09:42:40;13.4;98.0
45383;DHT22;42455;51.660;5.824;2023-01-06T09:46:57;13.4;98.0
45383;DHT22;42455;51.660;5.824;2023-01-06T09:52:18;13.5;98.0
45383;DHT22;42455;51.660;5.824;2023-01-06T09:57:11;13.5;98.0
45383;DHT22;42455;51.660;5.824;2023-01-06T10:02:25;13.6;98.0
45383;DHT22;42455;51.660;5.824;2023-01-06T10:07:42;13.6;97.5
45383;DHT22;42455;51.660;5.824;2023-01-06T10:13:18;13.7;97.5
45383;DHT22;42455;51.660;5.824;2023-01-06T10:19:18;13.7;97.5
45383;DHT22;42455;51.660;5.824;2023-01-06T10:24:27;13.7;97.0
45383;DHT22;42455;51.660;5.824;2023-01-06T10:28:12;13.7;97.0
45383;DHT22;42455;51.660;5.824;2023-01-06T10:32:50;13.7;97.0
45383;DHT22;42455;51.660;5.824;2023-01-06T10:38:05;13.8;97.0
45383;DHT22;42455;51.660;5.824;2023-01-06T10:43:04;13.9;97.0
45383;DHT22;42455;51.660;5.824;2023-01-06T10:48:12;14.0;97.0
45383;DHT22;42455;51.660;5.824;2023-01-06T10:53:15;14.1;97.0
45383;DHT22;42455;51.660;5.824;2023-01-06T10:58:24;14.2;96.5
45383;DHT22;42455;51.660;5.824;2023-01-06T11:03:27;14.3;96.5
45383;DHT22;42455;51.660;5.824;2023-01-06T11:08:34;14.4;96.0
45383;DHT22;42455;51.660;5.824;2023-01-06T11:13:40;14.5;96.0
45383;DHT22;42455;51.660;5.824;2023-01-06T11:18:49;14.6;96.0
45383;DHT22;42455;51.660;5.824;2023-01-06T11:24:16;14.6;95.5
45383;DHT22;42455;51.660;5.824;2023-01-06T11:29:16;14.6;95.0
45383;DHT22;42455;51.660;5.824;2023-01-06T11:34:04;14.6;94.5
45383;DHT22;42455;51.660;5.824;2023-01-06T11:39:12;14.6;94.5
45383;DHT22;42455;51.660;5.824;2023-01-06T11:44:28;14.6;94.0
45383;DHT22;42455;51.660;5.824;2023-01-06T11:49:25;14.6;94.0
45383;DHT22;42455;51.660;5.824;2023-01-06T11:54:37;14.7;94.0
45383;DHT22;42455;51.660;5.824;2023-01-06T11:59:45;14.8;94.5
45383;DHT22;42455;51.660;5.824;2023-01-06T12:04:47;14.9;94.5
45383;DHT22;42455;51.660;5.824;2023-01-06T12:09:51;15.1;94.0
45383;DHT22;42455;51.660;5.824;2023-01-06T12:14:53;15.2;94.0
45383;DHT22;42455;51.660;5.824;2023-01-06T12:20:05;15.4;94.0
45383;DHT22;42455;51.660;5.824;2023-01-06T12:25:09;15.5;93.0
45383;DHT22;42455;51.660;5.824;2023-01-06T12:30:14;15.6;92.5
45383;DHT22;42455;51.660;5.824;2023-01-06T12:35:20;15.7;92.5
45383;DHT22;42455;51.660;5.824;2023-01-06T12:40:27;15.7;92.0
45383;DHT22;42455;51.660;5.824;2023-01-06T12:45:41;15.8;91.5
45383;DHT22;42455;51.660;5.824;2023-01-06T12:50:39;15.8;91.0
45383;DHT22;42455;51.660;5.824;2023-01-06T12:56:17;15.8;90.5
45383;DHT22;42455;51.660;5.824;2023-01-06T13:01:59;15.9;90.5
45383;DHT22;42455;51.660;5.824;2023-01-06T13:08:01;15.9;90.0
45383;DHT22;42455;51.660;5.824;2023-01-06T13:13:41;15.9;89.5
45383;DHT22;42455;51.660;5.824;2023-01-06T13:16:37;15.8;88.5
45383;DHT22;42455;51.660;5.824;2023-01-06T13:21:17;15.7;88.5
45383;DHT22;42455;51.660;5.824;2023-01-06T13:27:17;15.7;88.5
45383;DHT22;42455;51.660;5.824;2023-01-06T13:33:37;15.6;88.5
45383;DHT22;42455;51.660;5.824;2023-01-06T13:39:03;15.5;88.5
45383;DHT22;42455;51.660;5.824;2023-01-06T13:41:42;15.5;88.5
45383;DHT22;42455;51.660;5.824;2023-01-06T13:46:44;15.4;89.0
45383;DHT22;42455;51.660;5.824;2023-01-06T13:51:50;15.4;89.0
45383;DHT22;42455;51.660;5.824;2023-01-06T13:57:29;15.3;88.5
45383;DHT22;42455;51.660;5.824;2023-01-06T14:07:09;15.1;88.5
45383;DHT22;42455;51.660;5.824;2023-01-06T14:12:18;15.0;89.0
45383;DHT22;42455;51.660;5.824;2023-01-06T14:17:33;15.0;89.5
45383;DHT22;42455;51.660;5.824;2023-01-06T14:22:26;14.9;89.5
45383;DHT22;42455;51.660;5.824;2023-01-06T14:28:26;14.9;89.5
45383;DHT22;42455;51.660;5.824;2023-01-06T14:33:29;14.8;89.5
45383;DHT22;42455;51.660;5.824;2023-01-06T14:37:47;14.8;89.5
45383;DHT22;42455;51.660;5.824;2023-01-06T14:42:51;14.7;89.5
45383;DHT22;42455;51.660;5.824;2023-01-06T14:47:59;14.6;90.0
45383;DHT22;42455;51.660;5.824;2023-01-06T14:53:06;14.6;90.0
45383;DHT22;42455;51.660;5.824;2023-01-06T14:58:26;14.5;90.5
45383;DHT22;42455;51.660;5.824;2023-01-06T15:03:21;14.5;90.5
45383;DHT22;42455;51.660;5.824;2023-01-06T15:08:21;14.4;90.5
45383;DHT22;42455;51.660;5.824;2023-01-06T15:13:30;14.4;90.5
45383;DHT22;42455;51.660;5.824;2023-01-06T15:18:35;14.4;90.5
45383;DHT22;42455;51.660;5.824;2023-01-06T15:23:45;14.3;91.0
45383;DHT22;42455;51.660;5.824;2023-01-06T15:28:55;14.3;91.0
45383;DHT22;42455;51.660;5.824;2023-01-06T15:33:53;14.2;91.0
45383;DHT22;42455;51.660;5.824;2023-01-06T15:39:01;14.2;91.0
45383;DHT22;42455;51.660;5.824;2023-01-06T15:44:26;14.1;91.5
45383;DHT22;42455;51.660;5.824;2023-01-06T15:49:19;14.1;91.5
45383;DHT22;42455;51.660;5.824;2023-01-06T15:54:17;14.0;91.5
45383;DHT22;42455;51.660;5.824;2023-01-06T15:59:23;13.9;92.0
45383;DHT22;42455;51.660;5.824;2023-01-06T16:04:30;13.9;92.0
45383;DHT22;42455;51.660;5.824;2023-01-06T16:09:35;13.8;92.0
45383;DHT22;42455;51.660;5.824;2023-01-06T16:14:42;13.7;92.5
45383;DHT22;42455;51.660;5.824;2023-01-06T16:19:50;13.7;92.5
45383;DHT22;42455;51.660;5.824;2023-01-06T16:24:52;13.6;92.5
45383;DHT22;42455;51.660;5.824;2023-01-06T16:30:22;13.6;93.0
45383;DHT22;42455;51.660;5.824;2023-01-06T16:35:10;13.5;93.0
45383;DHT22;42455;51.660;5.824;2023-01-06T16:40:12;13.5;93.5
45383;DHT22;42455;51.660;5.824;2023-01-06T16:45:26;13.4;93.5
45383;DHT22;42455;51.660;5.824;2023-01-06T16:50:25;13.4;94.0
45383;DHT22;42455;51.660;5.824;2023-01-06T16:55:30;13.4;94.0
45383;DHT22;42455;51.660;5.824;2023-01-06T17:00:39;13.4;94.0
45383;DHT22;42455;51.660;5.824;2023-01-06T17:05:42;13.3;94.5
45383;DHT22;42455;51.660;5.824;2023-01-06T17:10:48;13.3;94.5
45383;DHT22;42455;51.660;5.824;2023-01-06T17:15:59;13.3;94.5
45383;DHT22;42455;51.660;5.824;2023-01-06T17:21:07;13.3;95.0
45383;DHT22;42455;51.660;5.824;2023-01-06T17:26:12;13.2;95.0
45383;DHT22;42455;51.660;5.824;2023-01-06T17:31:14;13.2;95.5
45383;DHT22;42455;51.660;5.824;2023-01-06T17:36:23;13.3;95.5
45383;DHT22;42455;51.660;5.824;2023-01-06T17:41:27;13.2;95.5
45383;DHT22;42455;51.660;5.824;2023-01-06T17:46:35;13.2;95.5
45383;DHT22;42455;51.660;5.824;2023-01-06T17:51:38;13.2;95.5
45383;DHT22;42455;51.660;5.824;2023-01-06T17:56:45;13.2;96.0
45383;DHT22;42455;51.660;5.824;2023-01-06T18:01:50;13.2;96.0
45383;DHT22;42455;51.660;5.824;2023-01-06T18:06:56;13.3;96.5
45383;DHT22;42455;51.660;5.824;2023-01-06T18:12:08;13.3;96.5
45383;DHT22;42455;51.660;5.824;2023-01-06T18:17:21;13.3;96.5
45383;DHT22;42455;51.660;5.824;2023-01-06T18:22:16;13.4;96.5
45383;DHT22;42455;51.660;5.824;2023-01-06T18:27:22;13.4;97.0
45383;DHT22;42455;51.660;5.824;2023-01-06T18:32:33;13.4;97.0
45383;DHT22;42455;51.660;5.824;2023-01-06T18:37:34;13.5;97.0
45383;DHT22;42455;51.660;5.824;2023-01-06T18:42:40;13.5;97.0
45383;DHT22;42455;51.660;5.824;2023-01-06T18:47:48;13.5;97.0
45383;DHT22;42455;51.660;5.824;2023-01-06T18:52:52;13.6;97.0
45383;DHT22;42455;51.660;5.824;2023-01-06T18:57:58;13.6;97.0
45383;DHT22;42455;51.660;5.824;2023-01-06T19:03:13;13.6;97.0
45383;DHT22;42455;51.660;5.824;2023-01-06T19:08:30;13.6;97.0
45383;DHT22;42455;51.660;5.824;2023-01-06T19:13:18;13.6;97.0
45383;DHT22;42455;51.660;5.824;2023-01-06T19:18:21;13.6;97.0
45383;DHT22;42455;51.660;5.824;2023-01-06T19:23:30;13.6;97.0
45383;DHT22;42455;51.660;5.824;2023-01-06T19:28:34;13.6;97.0
45383;DHT22;42455;51.660;5.824;2023-01-06T19:33:41;13.5;97.5
45383;DHT22;42455;51.660;5.824;2023-01-06T19:38:46;13.5;97.5
45383;DHT22;42455;51.660;5.824;2023-01-06T19:44:00;13.5;97.5
45383;DHT22;42455;51.660;5.824;2023-01-06T19:48:59;13.5;98.0
45383;DHT22;42455;51.660;5.824;2023-01-06T19:54:21;13.4;98.0
45383;DHT22;42455;51.660;5.824;2023-01-06T19:59:15;13.4;98.0
45383;DHT22;42455;51.660;5.824;2023-01-06T20:04:25;13.4;98.0
45383;DHT22;42455;51.660;5.824;2023-01-06T20:09:24;13.4;98.5
45383;DHT22;42455;51.660;5.824;2023-01-06T20:14:29;13.4;98.5
45383;DHT22;42455;51.660;5.824;2023-01-06T20:19:35;13.4;98.5
45383;DHT22;42455;51.660;5.824;2023-01-06T20:24:40;13.4;98.5
45383;DHT22;42455;51.660;5.824;2023-01-06T20:29:46;13.4;98.5
45383;DHT22;42455;51.660;5.824;2023-01-06T20:34:53;13.4;98.5
45383;DHT22;42455;51.660;5.824;2023-01-06T20:39:59;13.4;98.5
45383;DHT22;42455;51.660;5.824;2023-01-06T20:45:06;13.5;98.5
45383;DHT22;42455;51.660;5.824;2023-01-06T20:50:11;13.5;98.5
45383;DHT22;42455;51.660;5.824;2023-01-06T20:55:18;13.5;98.5
45383;DHT22;42455;51.660;5.824;2023-01-06T21:00:24;13.5;98.5
45383;DHT22;42455;51.660;5.824;2023-01-06T21:05:30;13.5;98.5
45383;DHT22;42455;51.660;5.824;2023-01-06T21:10:36;13.5;98.5
45383;DHT22;42455;51.660;5.824;2023-01-06T21:15:42;13.5;98.5
45383;DHT22;42455;51.660;5.824;2023-01-06T21:20:49;13.5;98.5
45383;DHT22;42455;51.660;5.824;2023-01-06T21:25:55;13.5;98.5
45383;DHT22;42455;51.660;5.824;2023-01-06T21:31:01;13.5;98.5
45383;DHT22;42455;51.660;5.824;2023-01-06T21:36:07;13.5;98.5
45383;DHT22;42455;51.660;5.824;2023-01-06T21:41:13;13.5;98.5
45383;DHT22;42455;51.660;5.824;2023-01-06T21:46:20;13.5;98.5
45383;DHT22;42455;51.660;5.824;2023-01-06T21:51:26;13.5;98.5
45383;DHT22;42455;51.660;5.824;2023-01-06T21:56:32;13.4;98.5
45383;DHT22;42455;51.660;5.824;2023-01-06T22:01:38;13.4;98.5
45383;DHT22;42455;51.660;5.824;2023-01-06T22:06:45;13.5;98.5
45383;DHT22;42455;51.660;5.824;2023-01-06T22:11:50;13.4;98.5
45383;DHT22;42455;51.660;5.824;2023-01-06T22:16:56;13.4;98.5
45383;DHT22;42455;51.660;5.824;2023-01-06T22:22:01;13.4;98.5
45383;DHT22;42455;51.660;5.824;2023-01-06T22:27:07;13.4;98.5
45383;DHT22;42455;51.660;5.824;2023-01-06T22:32:14;13.4;98.5
45383;DHT22;42455;51.660;5.824;2023-01-06T22:37:20;13.4;98.5
45383;DHT22;42455;51.660;5.824;2023-01-06T22:42:26;13.4;98.5
45383;DHT22;42455;51.660;5.824;2023-01-06T22:47:32;13.4;98.5
45383;DHT22;42455;51.660;5.824;2023-01-06T22:52:38;13.4;98.5
45383;DHT22;42455;51.660;5.824;2023-01-06T22:57:45;13.4;98.5
45383;DHT22;42455;51.660;5.824;2023-01-06T23:02:51;13.4;98.5
45383;DHT22;42455;51.660;5.824;2023-01-06T23:07:57;13.4;98.5
45383;DHT22;42455;51.660;5.824;2023-01-06T23:13:03;13.4;98.5
45383;DHT22;42455;51.660;5.824;2023-01-06T23:18:10;13.4;98.5
45383;DHT22;42455;51.660;5.824;2023-01-06T23:23:16;13.3;98.5
45383;DHT22;42455;51.660;5.824;2023-01-06T23:28:22;13.3;98.5
45383;DHT22;42455;51.660;5.824;2023-01-06T23:33:28;13.2;98.5
45383;DHT22;42455;51.660;5.824;2023-01-06T23:38:34;13.2;98.5
45383;DHT22;42455;51.660;5.824;2023-01-06T23:43:41;13.2;98.5
45383;DHT22;42455;51.660;5.824;2023-01-06T23:48:48;13.1;98.5
45383;DHT22;42455;51.660;5.824;2023-01-06T23:53:53;13.1;98.5
45383;DHT22;42455;51.660;5.824;2023-01-06T23:59:03;13.1;98.5
